Time;durP1;ratioP1;P1;durP2;ratioP2;P2;SDS_P1;SDS_P2;PMS_P1;PMS_P2;Temp;Humidity;BMP_temperature;BMP_pressure;BME280_temperature;BME280_humidity;BME280_pressure;Samples;Min_cycle;Max_cycle;Signal;HPM_P1;HPM_P2
2024/03/13 00:02:45;;;;;;;39.60;20.70;;;;;;;-8.63;100.00;140187.88;106644;1271;25386;-65
2024/03/13 00:05:31;;;;;;;33.40;18.50;;;;;;;-8.60;100.00;140194.75;106672;1270;25444;-64
2024/03/13 00:08:16;;;;;;;34.80;19.00;;;;;;;-8.57;100.00;140201.92;106629;1270;25393;-67
2024/03/13 00:11:03;;;;;;;28.00;17.00;;;;;;;-8.54;100.00;140209.80;106656;1279;25416;-62
2024/03/13 00:13:48;;;;;;;27.00;15.90;;;;;;;-8.49;100.00;140219.67;106627;1267;25362;-63
2024/03/13 00:16:35;;;;;;;30.60;17.40;;;;;;;-8.47;100.00;140225.58;106666;1268;24220;-63
2024/03/13 00:19:21;;;;;;;30.30;16.20;;;;;;;-8.46;100.00;140228.30;106661;1268;25491;-66
2024/03/13 00:22:06;;;;;;;29.80;16.10;;;;;;;-8.41;100.00;140238.66;106648;1267;25397;-65
2024/03/13 00:24:54;;;;;;;28.90;16.70;;;;;;;-8.37;100.00;140249.44;106639;1271;25373;-61
2024/03/13 00:27:44;;;;;;;27.20;15.80;;;;;;;-8.36;100.00;140252.91;106647;1271;25398;-62
2024/03/13 00:30:30;;;;;;;34.30;17.30;;;;;;;-8.35;100.00;140254.63;106697;1266;25357;-64
2024/03/13 00:33:16;;;;;;;28.40;16.60;;;;;;;-8.36;100.00;140253.66;106648;1269;25373;-59
2024/03/13 00:36:04;;;;;;;32.10;17.40;;;;;;;-8.35;100.00;140255.39;106654;1270;25373;-62
2024/03/13 00:38:50;;;;;;;29.20;15.80;;;;;;;-8.33;100.00;140259.08;106681;1268;25424;-66
2024/03/13 00:41:38;;;;;;;35.70;17.80;;;;;;;-8.31;100.00;140263.77;106649;1270;25386;-63
2024/03/13 00:44:25;;;;;;;33.00;18.20;;;;;;;-8.32;100.00;140263.53;106658;1269;25419;-63
2024/03/13 00:47:14;;;;;;;28.90;17.40;;;;;;;-8.31;100.00;140265.00;106641;1270;25337;-63
2024/03/13 00:50:03;;;;;;;29.20;17.30;;;;;;;-8.34;100.00;140255.88;106613;1271;25356;-64
2024/03/13 00:52:48;;;;;;;30.90;17.80;;;;;;;-8.38;100.00;140246.55;106647;1269;25448;-65
2024/03/13 00:55:34;;;;;;;28.80;18.30;;;;;;;-8.39;100.00;140245.80;106630;1276;25362;-64
2024/03/13 00:58:21;;;;;;;33.70;17.70;;;;;;;-8.38;100.00;140247.25;106663;1269;25348;-62
2024/03/13 01:01:12;;;;;;;38.30;21.60;;;;;;;-8.38;100.00;140247.25;106591;1270;25338;-63
2024/03/13 01:03:59;;;;;;;38.90;23.20;;;;;;;-8.39;100.00;140243.84;106606;1267;25409;-62
2024/03/13 01:06:45;;;;;;;41.20;24.20;;;;;;;-8.39;100.00;140246.03;106647;1267;25454;-61
2024/03/13 01:09:31;;;;;;;41.80;26.50;;;;;;;-8.39;100.00;140244.08;106680;1265;25435;-63
2024/03/13 01:12:19;;;;;;;40.50;23.30;;;;;;;-8.36;100.00;140251.67;106683;1270;25451;-62
2024/03/13 01:15:06;;;;;;;41.40;22.90;;;;;;;-8.33;100.00;140259.08;106641;1270;25369;-63
2024/03/13 01:17:51;;;;;;;40.30;23.90;;;;;;;-8.32;100.00;140262.03;106609;1268;25348;-63
2024/03/13 01:20:37;;;;;;;38.30;20.30;;;;;;;-8.29;100.00;140268.20;106385;1267;24271;-64
2024/03/13 01:23:22;;;;;;;34.60;20.20;;;;;;;-8.33;100.00;140259.58;106331;1266;25363;-61
2024/03/13 01:26:08;;;;;;;33.80;19.70;;;;;;;-8.36;100.00;140250.94;106539;1267;25418;-62
2024/03/13 01:28:54;;;;;;;37.80;20.30;;;;;;;-8.36;100.00;140251.92;106582;1270;25355;-61
2024/03/13 01:31:40;;;;;;;40.70;20.80;;;;;;;-8.40;100.00;140243.34;106656;1270;25363;-66
2024/03/13 01:34:26;;;;;;;35.30;20.10;;;;;;;-8.40;100.00;140241.38;106621;1269;25403;-62
2024/03/13 01:40:25;;;;;;;34.10;18.50;;;;;;;-8.55;100.00;140207.34;106669;1268;25376;-64
2024/03/13 01:55:35;;;;;;;28.70;17.60;;;;;;;-8.77;100.00;140153.11;106673;1270;25425;-63
2024/03/13 01:58:39;;;;;;;33.30;17.90;;;;;;;-8.77;100.00;140153.09;106673;1270;25477;-62
2024/03/13 02:04:30;;;;;;;26.00;17.20;;;;;;;-8.74;100.00;140159.75;106625;1274;25377;-63
2024/03/13 02:07:18;;;;;;;28.70;15.90;;;;;;;-8.73;100.00;140163.94;106632;1268;25428;-65
2024/03/13 02:10:04;;;;;;;33.10;16.70;;;;;;;-8.75;100.00;140158.75;106614;1270;25377;-66
2024/03/13 02:13:04;;;;;;;36.70;20.80;;;;;;;-8.74;100.00;140160.98;106638;1269;25337;-61
2024/03/13 02:15:50;;;;;;;32.90;19.00;;;;;;;-8.69;100.00;140171.84;106649;1269;25376;-63
2024/03/13 02:18:36;;;;;;;35.70;21.00;;;;;;;-8.69;100.00;140172.81;106623;1269;25401;-63
2024/03/13 02:21:22;;;;;;;33.50;19.60;;;;;;;-8.66;100.00;140179.72;106610;1268;25363;-66
2024/03/13 02:24:08;;;;;;;37.00;18.70;;;;;;;-8.63;100.00;140187.61;106642;1265;25411;-65
2024/03/13 02:26:54;;;;;;;29.50;16.70;;;;;;;-8.60;100.00;140195.27;106637;1268;25329;-66
2024/03/13 02:29:41;;;;;;;36.40;17.60;;;;;;;-8.57;100.00;140200.94;106671;1265;25373;-64
2024/03/13 02:32:27;;;;;;;32.70;16.70;;;;;;;-8.60;100.00;140194.53;106648;1268;25334;-64
2024/03/13 02:35:14;;;;;;;28.70;16.50;;;;;;;-8.59;100.00;140197.00;106679;1267;25366;-63
2024/03/13 02:37:59;;;;;;;33.40;17.50;;;;;;;-8.60;100.00;140194.02;106636;1268;25419;-63
2024/03/13 02:40:46;;;;;;;33.70;16.40;;;;;;;-8.60;100.00;140195.28;106582;1270;25449;-61
2024/03/13 02:43:34;;;;;;;35.00;18.20;;;;;;;-8.58;100.00;140199.19;106409;1270;25463;-64
2024/03/13 02:46:20;;;;;;;31.30;17.00;;;;;;;-8.58;100.00;140199.94;106398;1269;25338;-64
2024/03/13 02:49:06;;;;;;;30.80;18.30;;;;;;;-8.55;100.00;140205.61;106537;1267;25356;-64
2024/03/13 02:51:51;;;;;;;31.60;17.10;;;;;;;-8.53;100.00;140211.78;106566;1270;26589;-63
2024/03/13 02:54:37;;;;;;;29.60;16.80;;;;;;;-8.50;100.00;140217.95;106626;1268;25373;-68
2024/03/13 02:57:25;;;;;;;31.70;17.60;;;;;;;-8.51;100.00;140216.47;106664;1270;25348;-66
2024/03/13 03:00:12;;;;;;;33.90;18.60;;;;;;;-8.53;100.00;140212.77;106670;1278;25498;-64
2024/03/13 03:02:57;;;;;;;33.60;18.60;;;;;;;-8.53;100.00;140212.03;106654;1269;25520;-63
2024/03/13 03:05:43;;;;;;;32.70;19.10;;;;;;;-8.52;100.00;140213.75;106636;1266;25462;-64
2024/03/13 03:08:32;;;;;;;40.60;18.90;;;;;;;-8.51;100.00;140216.47;106643;1268;25345;-60
2024/03/13 03:11:17;;;;;;;36.60;21.60;;;;;;;-8.52;100.00;140214.48;106618;1270;25498;-67
2024/03/13 03:14:05;;;;;;;35.80;21.00;;;;;;;-8.56;100.00;140205.61;106668;1269;25428;-65
2024/03/13 03:16:50;;;;;;;30.90;17.90;;;;;;;-8.55;100.00;140207.59;106673;1265;23798;-64
2024/03/13 03:19:36;;;;;;;32.80;19.00;;;;;;;-8.57;100.00;140202.17;106660;1269;25379;-62
2024/03/13 03:22:21;;;;;;;34.50;21.20;;;;;;;-8.56;100.00;140203.88;106662;1268;25348;-66
2024/03/13 03:25:09;;;;;;;41.40;19.80;;;;;;;-8.54;100.00;140210.31;106654;1271;25462;-61
2024/03/13 03:27:58;;;;;;;41.70;23.30;;;;;;;-8.53;100.00;140211.03;106656;1270;25373;-62
2024/03/13 03:30:46;;;;;;;45.50;23.00;;;;;;;-8.52;100.00;140215.23;106639;1269;25331;-67
2024/03/13 03:33:32;;;;;;;37.40;21.30;;;;;;;-8.50;100.00;140218.19;106638;1268;25447;-64
2024/03/13 03:36:19;;;;;;;50.00;23.10;;;;;;;-8.49;100.00;140219.44;106659;1268;25409;-61
2024/03/13 03:39:10;;;;;;;40.80;22.80;;;;;;;-8.53;100.00;140212.28;106654;1268;25349;-61
2024/03/13 03:41:57;;;;;;;42.50;24.30;;;;;;;-8.59;100.00;140198.72;106632;1271;25372;-61
2024/03/13 03:44:43;;;;;;;53.70;25.20;;;;;;;-8.63;100.00;140188.59;106635;1268;25407;-63
2024/03/13 03:47:28;;;;;;;38.70;23.00;;;;;;;-8.67;100.00;140178.00;106654;1268;25395;-62
2024/03/13 03:50:14;;;;;;;41.80;23.60;;;;;;;-8.68;100.00;140176.27;106671;1276;25376;-63
2024/03/13 03:53:00;;;;;;;45.80;25.20;;;;;;;-8.71;100.00;140167.91;106633;1269;25338;-60
2024/03/13 03:55:46;;;;;;;41.30;23.40;;;;;;;-8.73;100.00;140164.20;106654;1268;25348;-62
2024/03/13 03:58:32;;;;;;;42.50;22.40;;;;;;;-8.73;100.00;140162.22;106638;1270;25345;-63
2024/03/13 04:01:18;;;;;;;32.70;20.10;;;;;;;-8.74;100.00;140160.97;106661;1269;25410;-63
2024/03/13 04:04:04;;;;;;;40.20;22.20;;;;;;;-8.75;100.00;140158.27;106652;1268;25387;-62
2024/03/13 04:06:50;;;;;;;41.10;23.10;;;;;;;-8.78;100.00;140152.34;106651;1266;25422;-62
2024/03/13 04:09:36;;;;;;;38.20;22.50;;;;;;;-8.82;100.00;140142.72;106655;1269;25364;-64
2024/03/13 04:12:22;;;;;;;41.20;22.40;;;;;;;-8.88;100.00;140127.20;106629;1268;25396;-62
2024/03/13 04:15:08;;;;;;;37.00;20.60;;;;;;;-8.93;100.00;140114.88;106620;1268;25358;-65
2024/03/13 04:17:53;;;;;;;38.80;21.20;;;;;;;-8.98;100.00;140104.78;106662;1268;25413;-61
2024/03/13 04:20:39;;;;;;;44.60;23.20;;;;;;;-9.01;100.00;140096.16;106709;1268;25531;-62
2024/03/13 04:23:24;;;;;;;50.90;24.90;;;;;;;-9.06;100.00;140085.05;106620;1268;25361;-65
2024/03/13 04:26:10;;;;;;;42.10;21.20;;;;;;;-9.04;100.00;140087.28;106644;1269;25437;-63
2024/03/13 04:28:58;;;;;;;40.20;23.30;;;;;;;-9.03;100.00;140090.22;106621;1268;25485;-62
2024/03/13 04:31:44;;;;;;;46.20;23.90;;;;;;;-9.00;100.00;140100.09;106629;1264;25345;-62
2024/03/13 04:34:30;;;;;;;45.70;25.00;;;;;;;-8.99;100.00;140100.34;106662;1268;25351;-63
2024/03/13 04:37:16;;;;;;;49.80;25.60;;;;;;;-8.98;100.00;140104.53;106645;1263;25488;-62
2024/03/13 04:40:03;;;;;;;49.60;28.50;;;;;;;-9.00;100.00;140099.84;106633;1270;25472;-61
2024/03/13 04:42:49;;;;;;;54.90;30.80;;;;;;;-9.00;100.00;140099.34;106646;1269;25475;-59
2024/03/13 04:45:36;;;;;;;54.20;28.90;;;;;;;-9.00;100.00;140099.38;106644;1269;25518;-67
2024/03/13 04:48:22;;;;;;;48.80;27.10;;;;;;;-8.97;100.00;140106.00;106642;1268;25348;-62
2024/03/13 04:51:09;;;;;;;47.50;26.80;;;;;;;-8.92;100.00;140117.34;106678;1265;25565;-59
2024/03/13 04:53:54;;;;;;;52.40;29.10;;;;;;;-8.87;100.00;140129.92;106623;1268;25415;-59
2024/03/13 04:56:40;;;;;;;48.40;29.00;;;;;;;-8.84;100.00;140137.08;106650;1279;25376;-58
2024/03/13 04:59:26;;;;;;;52.00;29.60;;;;;;;-8.82;100.00;140141.75;106657;1279;25463;-63
2024/03/13 05:02:13;;;;;;;49.50;26.80;;;;;;;-8.79;100.00;140148.41;106585;1279;25349;-60
2024/03/13 05:04:59;;;;;;;46.50;27.80;;;;;;;-8.77;100.00;140154.34;106632;1279;25351;-60
2024/03/13 05:07:45;;;;;;;40.00;25.00;;;;;;;-8.74;100.00;140159.50;106586;1259;25345;-59
2024/03/13 05:10:30;;;;;;;37.40;22.90;;;;;;;-8.71;100.00;140168.14;106655;1268;25494;-62
2024/03/13 05:13:16;;;;;;;46.70;26.70;;;;;;;-8.66;100.00;140181.20;106658;1265;25442;-61
2024/03/13 05:16:03;;;;;;;46.40;26.70;;;;;;;-8.63;100.00;140188.34;106632;1270;25407;-60
2024/03/13 05:18:49;;;;;;;49.40;27.70;;;;;;;-8.59;100.00;140197.73;106639;1268;25414;-63
2024/03/13 05:21:36;;;;;;;40.50;25.50;;;;;;;-8.55;100.00;140208.09;106654;1268;25445;-63
2024/03/13 05:24:22;;;;;;;40.60;25.10;;;;;;;-8.53;100.00;140211.28;106634;1270;25401;-58
2024/03/13 05:27:08;;;;;;;41.50;24.10;;;;;;;-8.51;100.00;140217.20;106652;1279;25344;-62
2024/03/13 05:29:53;;;;;;;41.80;26.30;;;;;;;-8.45;100.00;140231.25;106646;1269;25356;-63
2024/03/13 05:32:40;;;;;;;42.10;25.00;;;;;;;-8.41;100.00;140240.88;106649;1278;25425;-60
2024/03/13 05:35:26;;;;;;;45.10;27.80;;;;;;;-8.35;100.00;140254.91;106647;1268;25335;-65
2024/03/13 05:38:11;;;;;;;48.00;27.40;;;;;;;-8.33;100.00;140259.09;106649;1268;25373;-61
2024/03/13 05:40:58;;;;;;;41.50;26.00;;;;;;;-8.31;100.00;140264.25;106671;1268;25373;-59
2024/03/13 05:43:43;;;;;;;45.80;28.70;;;;;;;-8.30;100.00;140267.72;106659;1268;25476;-63
2024/03/13 05:46:29;;;;;;;47.80;27.30;;;;;;;-8.30;100.00;140267.22;106638;1279;22753;-61
2024/03/13 05:49:16;;;;;;;38.70;23.20;;;;;;;-8.30;100.00;140266.22;106673;1266;25348;-61
2024/03/13 05:52:04;;;;;;;43.70;23.90;;;;;;;-8.28;100.00;140270.44;106632;1268;25376;-59
2024/03/13 05:54:50;;;;;;;38.70;24.30;;;;;;;-8.27;100.00;140272.66;106625;1270;25419;-63
2024/03/13 05:57:38;;;;;;;41.20;24.20;;;;;;;-8.23;100.00;140282.50;106657;1259;25358;-61
2024/03/13 06:00:25;;;;;;;37.20;24.60;;;;;;;-8.22;100.00;140286.95;106671;1260;25489;-60
2024/03/13 06:03:11;;;;;;;38.90;24.60;;;;;;;-8.24;100.00;140282.53;106673;1262;25497;-65
2024/03/13 06:05:57;;;;;;;40.80;22.90;;;;;;;-8.25;100.00;140279.33;106672;1261;25425;-64
2024/03/13 06:08:43;;;;;;;39.10;25.00;;;;;;;-8.23;100.00;140282.75;106626;1265;25425;-63
2024/03/13 06:11:29;;;;;;;40.50;22.50;;;;;;;-8.22;100.00;140287.44;106676;1268;25390;-67
2024/03/13 06:14:16;;;;;;;45.30;26.80;;;;;;;-8.23;100.00;140284.00;106660;1268;25358;-67
2024/03/13 06:17:02;;;;;;;52.00;26.60;;;;;;;-8.24;100.00;140281.03;106644;1268;25338;-67
2024/03/13 06:19:48;;;;;;;37.90;24.60;;;;;;;-8.24;100.00;140281.55;106627;1264;25338;-59
2024/03/13 06:22:35;;;;;;;43.70;25.30;;;;;;;-8.26;100.00;140276.33;106645;1257;25482;-67
2024/03/13 06:25:23;;;;;;;37.40;24.10;;;;;;;-8.26;100.00;140276.84;106629;1268;25495;-62
2024/03/13 06:31:15;;;;;;;47.00;28.50;;;;;;;-8.27;100.00;140273.66;106652;1260;25460;-64
2024/03/13 06:34:01;;;;;;;40.30;25.20;;;;;;;-8.31;100.00;140265.00;106630;1268;25450;-63
2024/03/13 06:36:47;;;;;;;45.20;25.70;;;;;;;-8.34;100.00;140256.61;106640;1259;25365;-61
2024/03/13 06:39:32;;;;;;;44.30;28.30;;;;;;;-8.30;100.00;140267.22;106636;1261;25390;-61
2024/03/13 06:42:18;;;;;;;38.00;24.50;;;;;;;-8.22;100.00;140286.72;106652;1261;25347;-66
2024/03/13 06:45:05;;;;;;;42.80;27.50;;;;;;;-8.23;100.00;140283.75;106677;1269;25337;-66
2024/03/13 06:47:51;;;;;;;41.30;25.80;;;;;;;-8.19;100.00;140292.38;106723;1279;25488;-66
2024/03/13 06:50:37;;;;;;;45.20;27.00;;;;;;;-8.18;100.00;140295.09;106642;1279;25441;-64
2024/03/13 06:53:24;;;;;;;49.30;27.50;;;;;;;-8.21;100.00;140289.17;106635;1258;25414;-63
2024/03/13 06:56:09;;;;;;;38.20;25.50;;;;;;;-8.16;100.00;140300.28;106646;1260;25453;-63
2024/03/13 06:58:56;;;;;;;45.90;23.50;;;;;;;-8.06;100.00;140324.45;106654;1261;25386;-66
2024/03/13 07:01:45;;;;;;;44.80;26.50;;;;;;;-8.04;100.00;140329.88;106671;1262;25440;-62
2024/03/13 07:04:32;;;;;;;47.10;26.90;;;;;;;-8.01;100.00;140337.03;106633;1258;25413;-64
2024/03/13 07:07:18;;;;;;;47.90;26.80;;;;;;;-8.02;100.00;140334.08;106682;1262;25401;-64
2024/03/13 07:10:05;;;;;;;51.10;29.90;;;;;;;-7.97;100.00;140344.67;106647;1261;25526;-67
2024/03/13 07:12:51;;;;;;;46.50;29.00;;;;;;;-7.96;100.00;140348.38;106626;1279;25475;-60
2024/03/13 07:15:42;;;;;;;43.90;27.40;;;;;;;-8.00;100.00;140337.52;106661;1259;25348;-65
2024/03/13 07:18:31;;;;;;;45.00;26.90;;;;;;;-7.98;100.00;140344.69;106636;1260;25474;-65
2024/03/13 07:21:17;;;;;;;48.90;28.70;;;;;;;-7.91;100.00;140361.95;106632;1261;25359;-66
2024/03/13 07:24:03;;;;;;;42.60;23.40;;;;;;;-7.84;100.00;140378.48;106638;1260;25529;-63
2024/03/13 07:26:48;;;;;;;44.60;26.90;;;;;;;-7.84;100.00;140377.25;106616;1262;25498;-66
2024/03/13 07:29:35;;;;;;;46.30;28.10;;;;;;;-7.75;100.00;140399.47;106646;1260;25518;-62
2024/03/13 07:32:21;;;;;;;43.60;26.90;;;;;;;-7.67;100.00;140418.72;106650;1260;25364;-62
2024/03/13 07:35:10;;;;;;;50.30;29.70;;;;;;;-7.58;100.00;140438.97;106648;1262;25349;-63
2024/03/13 07:37:58;;;;;;;53.80;29.70;;;;;;;-7.43;100.00;140476.97;106677;1262;25953;-63
2024/03/13 07:40:43;;;;;;;47.80;27.50;;;;;;;-7.20;100.00;140530.55;106621;1277;25357;-68
2024/03/13 07:43:30;;;;;;;42.70;27.80;;;;;;;-7.17;100.00;140539.42;106617;1260;25327;-64
2024/03/13 07:46:16;;;;;;;46.70;27.90;;;;;;;-7.13;100.00;140548.08;106431;1262;26573;-64
2024/03/13 07:49:02;;;;;;;46.60;27.20;;;;;;;-7.18;100.00;140537.20;106324;1278;25478;-66
2024/03/13 07:51:49;;;;;;;48.00;28.30;;;;;;;-7.23;100.00;140526.09;106435;1259;25531;-65
2024/03/13 07:54:37;;;;;;;47.60;28.50;;;;;;;-7.23;100.00;140525.59;106415;1259;25428;-62
2024/03/13 07:57:24;;;;;;;51.00;30.20;;;;;;;-7.18;100.00;140536.47;106665;1262;24253;-67
2024/03/13 08:00:16;;;;;;;48.10;28.20;;;;;;;-7.05;100.00;140566.83;106639;1268;25422;-64
2024/03/13 08:03:02;;;;;;;48.30;28.10;;;;;;;-7.11;100.00;140553.25;106676;1262;25361;-66
2024/03/13 08:05:48;;;;;;;46.80;27.90;;;;;;;-7.19;100.00;140534.00;106648;1262;25376;-66
2024/03/13 08:08:33;;;;;;;55.60;28.20;;;;;;;-7.13;100.00;140547.33;106645;1257;25892;-66
2024/03/13 08:11:37;;;;;;;50.00;27.80;;;;;;;-6.95;100.00;140592.53;106650;1261;25373;-64
2024/03/13 08:14:41;;;;;;;53.30;27.70;;;;;;;-6.68;100.00;140655.75;106673;1262;25404;-65
2024/03/13 08:17:46;;;;;;;49.70;28.90;;;;;;;-6.66;100.00;140661.95;106690;1280;25408;-64
2024/03/13 08:20:52;;;;;;;38.70;24.00;;;;;;;-6.57;100.00;140684.91;106675;1260;25369;-65
2024/03/13 08:23:56;;;;;;;49.20;27.10;;;;;;;-6.61;100.00;140674.53;106664;1262;25485;-63
2024/03/13 08:27:00;;;;;;;48.00;27.80;;;;;;;-6.64;100.00;140666.39;106617;1262;25457;-64
2024/03/13 08:30:05;;;;;;;45.40;26.40;;;;;;;-6.67;100.00;140659.95;106679;1259;25393;-64
2024/03/13 08:33:10;;;;;;;48.60;24.50;;;;;;;-6.71;100.00;140649.09;106628;1266;25386;-63
2024/03/13 08:36:14;;;;;;;51.10;28.30;;;;;;;-6.80;100.00;140628.09;106627;1260;25377;-64
2024/03/13 08:39:25;;;;;;;42.60;24.00;;;;;;;-6.74;100.00;140642.42;106649;1260;25376;-66
2024/03/13 08:42:30;;;;;;;;;;;;;;;-6.71;100.00;140650.58;106674;1262;25469;-67
2024/03/13 08:45:34;;;;;;;39.70;24.00;;;;;;;-6.75;100.00;140640.69;106663;1261;25348;-67
2024/03/13 08:48:38;;;;;;;42.10;24.50;;;;;;;-6.89;100.00;140605.63;106643;1259;25488;-67
2024/03/13 08:51:42;;;;;;;41.50;24.40;;;;;;;-6.93;100.00;140596.97;106659;1260;25458;-63
2024/03/13 08:54:48;;;;;;;42.60;24.20;;;;;;;-6.91;100.00;140601.91;106650;1261;25366;-63
2024/03/13 08:57:52;;;;;;;37.80;23.70;;;;;;;-6.88;100.00;140608.09;106655;1262;25373;-66
2024/03/13 09:00:56;;;;;;;46.50;24.60;;;;;;;-6.86;100.00;140615.52;106665;1262;25386;-66
2024/03/13 09:04:00;;;;;;;51.40;28.00;;;;;;;-6.82;100.00;140623.91;106663;1261;25410;-66
2024/03/13 09:07:05;;;;;;;47.90;26.50;;;;;;;-6.82;100.00;140624.63;106626;1262;25349;-64
2024/03/13 09:09:51;;;;;;;53.60;26.90;;;;;;;-6.83;100.00;140621.67;106460;1262;25349;-63
2024/03/13 09:12:38;;;;;;;49.80;26.20;;;;;;;-6.82;100.00;140624.41;106372;1279;26501;-63
2024/03/13 09:15:23;;;;;;;40.20;24.50;;;;;;;-6.81;100.00;140625.63;106522;1260;25533;-65
2024/03/13 09:18:10;;;;;;;33.90;21.00;;;;;;;-6.81;100.00;140626.38;106453;1279;25376;-63
2024/03/13 09:20:56;;;;;;;40.50;23.10;;;;;;;-6.84;100.00;140620.20;106622;1262;25432;-63
2024/03/13 09:23:43;;;;;;;41.00;23.20;;;;;;;-6.81;100.00;140625.36;106630;1262;25345;-66
2024/03/13 09:26:34;;;;;;;42.90;24.00;;;;;;;-6.77;100.00;140635.27;106654;1262;25366;-65
2024/03/13 09:29:20;;;;;;;37.00;23.10;;;;;;;-6.68;100.00;140656.97;106680;1279;25341;-62
2024/03/13 09:32:06;;;;;;;44.00;22.30;;;;;;;-6.61;100.00;140674.30;106647;1279;25498;-66
2024/03/13 09:34:51;;;;;;;39.50;21.20;;;;;;;-6.57;100.00;140683.67;106639;1261;25418;-63
2024/03/13 09:37:37;;;;;;;34.60;21.90;;;;;;;-6.51;100.00;140699.48;106625;1262;25429;-68
2024/03/13 09:40:23;;;;;;;37.30;21.20;;;;;;;-6.44;100.00;140714.80;106526;1279;169495;-64
2024/03/13 09:43:10;;;;;;;36.90;22.50;;;;;;;-6.43;100.00;140718.75;106657;1279;25376;-63
2024/03/13 09:45:57;;;;;;;38.50;21.00;;;;;;;-6.48;100.00;140704.92;106651;1262;25407;-61
2024/03/13 09:48:44;;;;;;;36.60;21.90;;;;;;;-6.46;100.00;140710.38;106650;1279;25360;-64
2024/03/13 09:51:32;;;;;;;40.50;23.30;;;;;;;-6.41;100.00;140723.22;106635;1271;25373;-66
2024/03/13 09:54:19;;;;;;;41.80;23.40;;;;;;;-6.35;100.00;140736.55;106677;1262;25469;-65
2024/03/13 09:57:08;;;;;;;42.40;23.60;;;;;;;-6.27;100.00;140756.83;106659;1280;25466;-63
2024/03/13 09:59:56;;;;;;;47.90;24.60;;;;;;;-6.21;100.00;140769.67;106647;1269;25469;-63
2024/03/13 10:02:42;;;;;;;40.30;21.60;;;;;;;-6.15;100.00;140784.75;106635;1279;25367;-63
2024/03/13 10:05:30;;;;;;;39.00;21.50;;;;;;;-6.04;100.00;140812.92;106654;1279;25494;-65
2024/03/13 10:08:19;;;;;;;39.60;23.50;;;;;;;-5.87;100.00;140852.95;106643;1280;25801;-63
2024/03/13 10:11:05;;;;;;;36.60;22.60;;;;;;;-5.67;100.00;140902.14;106628;1262;25351;-67
2024/03/13 10:13:54;;;;;;;43.60;24.30;;;;;;;-5.50;100.00;140943.19;106659;1262;25447;-65
2024/03/13 10:16:43;;;;;;;46.10;27.00;;;;;;;-5.44;100.00;140957.52;106645;1260;25456;-64
2024/03/13 10:19:31;;;;;;;42.40;25.50;;;;;;;-5.51;100.00;140941.45;106657;1279;25329;-64
2024/03/13 10:22:19;;;;;;;44.10;23.00;;;;;;;-5.63;100.00;140911.53;106686;1262;25443;-66
2024/03/13 10:25:15;;;;;;;50.40;25.90;;;;;;;-5.73;100.00;140886.58;106668;1262;25337;-64
2024/03/13 10:28:03;;;;;;;45.00;22.90;;;;;;;-5.80;100.00;140869.73;106644;1262;25422;-63
2024/03/13 10:30:51;;;;;;;40.70;21.70;;;;;;;-5.88;100.00;140850.45;106626;1262;25363;-62
2024/03/13 10:33:37;;;;;;;40.00;22.00;;;;;;;-5.95;100.00;140835.16;106664;1279;25635;-65
2024/03/13 10:36:23;;;;;;;39.60;21.90;;;;;;;-5.94;100.00;140837.64;106634;1279;25395;-65
2024/03/13 10:39:11;;;;;;;39.90;20.60;;;;;;;-5.92;100.00;140841.58;106663;1280;25407;-64
2024/03/13 10:41:58;;;;;;;36.80;21.70;;;;;;;-5.92;100.00;140841.80;106627;1259;25467;-65
2024/03/13 10:44:46;;;;;;;28.00;17.90;;;;;;;-5.92;100.00;140841.08;106662;1280;25376;-66
2024/03/13 10:47:32;;;;;;;37.60;20.90;;;;;;;-5.95;100.00;140833.70;106637;1279;25465;-65
2024/03/13 10:50:18;;;;;;;38.60;22.70;;;;;;;-5.93;100.00;140838.84;106651;1262;25377;-63
2024/03/13 10:53:06;;;;;;;34.10;17.50;;;;;;;-5.85;100.00;140857.89;106632;1262;25361;-65
2024/03/13 10:55:52;;;;;;;36.70;20.70;;;;;;;-5.86;100.00;140855.66;106664;1262;25377;-66
2024/03/13 10:58:38;;;;;;;36.80;19.40;;;;;;;-5.82;100.00;140864.30;106656;1262;25469;-65
2024/03/13 11:01:25;;;;;;;43.20;21.50;;;;;;;-5.79;100.00;140871.22;106649;1280;25466;-64
2024/03/13 11:04:14;;;;;;;38.20;21.90;;;;;;;-5.70;100.00;140894.95;106654;1280;25351;-64
2024/03/13 11:07:00;;;;;;;42.30;22.10;;;;;;;-5.64;100.00;140908.83;106679;1262;25501;-65
2024/03/13 11:09:46;;;;;;;36.20;20.10;;;;;;;-5.59;100.00;140920.42;106640;1266;25351;-62
2024/03/13 11:12:32;;;;;;;36.90;20.30;;;;;;;-5.51;100.00;140939.97;106621;1260;25413;-64
2024/03/13 11:15:25;;;;;;;34.90;19.80;;;;;;;-5.47;100.00;140950.34;106663;1262;25370;-64
2024/03/13 11:18:15;;;;;;;38.40;19.90;;;;;;;-5.47;100.00;140950.86;106625;1262;25501;-62
2024/03/13 11:21:03;;;;;;;30.70;16.20;;;;;;;-5.46;100.00;140952.08;106649;1262;25377;-64
2024/03/13 11:24:01;;;;;;;29.30;16.50;;;;;;;-5.54;100.00;140932.80;106676;1280;25413;-62
2024/03/13 11:26:49;;;;;;;28.70;16.00;;;;;;;-5.61;100.00;140916.72;106655;1262;25450;-65
2024/03/13 11:29:43;;;;;;;27.10;14.90;;;;;;;-5.69;100.00;140897.42;106676;1262;25345;-61
2024/03/13 11:32:31;;;;;;;27.20;14.70;;;;;;;-5.68;100.00;140898.66;106641;1278;25421;-62
2024/03/13 11:35:20;;;;;;;24.70;12.60;;;;;;;-5.72;100.00;140888.78;106661;1262;25353;-64
2024/03/13 11:38:09;;;;;;;25.90;14.20;;;;;;;-5.74;100.00;140884.83;106660;1262;25366;-67
2024/03/13 11:40:56;;;;;;;24.60;13.60;;;;;;;-5.74;100.00;140885.33;106651;1262;25361;-66
2024/03/13 11:43:42;;;;;;;25.50;14.40;;;;;;;-5.79;100.00;140872.95;106674;1262;25407;-63
2024/03/13 11:46:47;;;;;;;28.70;14.70;;;;;;;-5.80;100.00;140869.00;106664;1260;25498;-63
2024/03/13 11:49:33;;;;;;;27.70;14.60;;;;;;;-5.73;100.00;140887.53;106663;1262;25411;-64
2024/03/13 11:52:18;;;;;;;35.50;16.10;;;;;;;-5.65;100.00;140905.61;106644;1262;25376;-65
2024/03/13 11:55:22;;;;;;;27.30;16.10;;;;;;;-5.61;100.00;140915.50;106662;1259;25352;-63
2024/03/13 11:58:21;;;;;;;29.50;15.50;;;;;;;-5.57;100.00;140925.39;106649;1262;25454;-65
2024/03/13 12:01:07;;;;;;;31.80;16.50;;;;;;;-5.50;100.00;140941.95;106656;1262;25466;-64
2024/03/13 12:03:58;;;;;;;28.80;17.10;;;;;;;-5.46;100.00;140953.08;106634;1262;25536;-65
2024/03/13 12:06:44;;;;;;;25.90;15.60;;;;;;;-5.35;100.00;140977.56;106636;1262;25462;-62
2024/03/13 12:09:35;;;;;;;29.10;13.60;;;;;;;-5.18;100.00;141020.13;106628;1262;26074;-65
2024/03/13 12:12:21;;;;;;;21.90;13.20;;;;;;;-5.03;100.00;141056.97;106657;1262;25355;-62
2024/03/13 12:15:08;;;;;;;26.00;13.80;;;;;;;-4.97;100.00;141068.88;106639;1263;25415;-61
2024/03/13 12:17:56;;;;;;;23.00;14.00;;;;;;;-4.95;100.00;141075.53;106638;1262;22815;-64
2024/03/13 12:20:43;;;;;;;22.10;13.40;;;;;;;-4.95;100.00;141075.05;106660;1280;25496;-65
2024/03/13 12:23:32;;;;;;;23.50;12.70;;;;;;;-4.97;100.00;141068.84;106640;1262;25421;-66
2024/03/13 12:26:24;;;;;;;24.30;13.50;;;;;;;-5.11;100.00;141036.20;106658;1262;25337;-63
2024/03/13 12:29:10;;;;;;;21.40;12.10;;;;;;;-5.15;100.00;141026.30;106651;1262;25351;-65
2024/03/13 12:31:56;;;;;;;26.70;13.70;;;;;;;-5.13;100.00;141031.25;106663;1272;25452;-66
2024/03/13 12:34:45;;;;;;;26.50;13.80;;;;;;;-5.04;100.00;141054.27;106666;1262;25400;-63
2024/03/13 12:37:31;;;;;;;25.80;15.20;;;;;;;-5.02;100.00;141059.70;106615;1280;25425;-63
2024/03/13 12:40:17;;;;;;;25.00;14.10;;;;;;;-4.97;100.00;141070.83;106623;1262;25365;-64
2024/03/13 12:43:09;;;;;;;29.40;13.90;;;;;;;-4.89;100.00;141091.14;106666;1280;25344;-65
2024/03/13 12:45:55;;;;;;;28.30;13.90;;;;;;;-4.83;100.00;141105.47;106532;1271;25498;-63
2024/03/13 12:48:41;;;;;;;29.80;14.30;;;;;;;-4.78;100.00;141115.39;106505;1280;25337;-64
2024/03/13 12:51:27;;;;;;;32.50;17.10;;;;;;;-4.80;100.00;141111.67;106536;1279;24460;-66